»·PEaware :: N733NB KSBP-KSMX

N733NB :: KSBP-KSMX

FLIGHT INFORMATION

Flight Status: Arrived
Operator: Privately registered:
United States
More flights under this callsign
Pilot: Todd P. (5750)
Aircraft: CESSNA 172 SKYHAWK
(C172)
More flights by this aircraft type
Origin: KSBP San Luis Co Regl
United States
Destination: KSMX Santa Maria Pub/Capt Hancock
United States
More flights between these airports :: More routes between these airports
Route: MCO V27 GVO
File this flight plan on PilotEdge
Remarks:
Altitude:
(Current/Filed)
5,000ft
Speed:
(Current/Filed)
100kts
Departed: 23-May-15 05:24 PM
Arrived: 23-May-15 06:06 PM
Distance/Time
Traveled:
22nm/0:42
Distance/Time
To Go:
Arrived

Flight Plot

Page will automatically refresh every two minutes.


Map Options




Map Legend


Flown Route
Filed Route
Departure Airport
Arrival Airport
Navaid (VOR, NDB)
Fix

Horizontal Profiles

Position Reports

Time Latitude Longitude Heading Altitude Ground
Speed
23-May-15 17:08 35.239334 -120.638281 179 198ft 0kts
23-May-15 17:09 35.239334 -120.638281 179 198ft 0kts
23-May-15 17:10 35.239334 -120.638281 179 198ft 0kts
23-May-15 17:11 35.239334 -120.638281 179 198ft 0kts
23-May-15 17:12 35.239334 -120.638281 179 198ft 0kts
23-May-15 17:13 35.239334 -120.638281 179 198ft 0kts
23-May-15 17:14 35.239334 -120.638281 179 198ft 0kts
23-May-15 17:15 35.236691 -120.637729 126 200ft 8kts
23-May-15 17:16 35.233904 -120.632847 124 217ft 16kts
23-May-15 17:17 35.233086 -120.631971 242 219ft 0kts
23-May-15 17:18 35.233086 -120.631971 242 219ft 0kts
23-May-15 17:19 35.233086 -120.631971 242 219ft 0kts
23-May-15 17:20 35.235420 -120.637670 304 446ft 46kts
23-May-15 17:21 35.244107 -120.652801 312 1498ft 46kts
23-May-15 17:22 35.250919 -120.663116 309 2192ft 48kts
23-May-15 17:23 35.260164 -120.677922 307 3143ft 46kts
23-May-15 17:24 35.266987 -120.688268 308 3792ft 48kts
23-May-15 17:25 35.269824 -120.701929 252 4492ft 63kts
23-May-15 17:26 35.261996 -120.722178 267 5034ft 84kts
23-May-15 17:27 35.254809 -120.751500 230 4996ft 94kts
23-May-15 17:28 35.228659 -120.736347 146 5029ft 117kts
23-May-15 17:29 35.203244 -120.708038 145 5047ft 121kts
23-May-15 17:30 35.179368 -120.677208 133 4945ft 130kts
23-May-15 17:31 35.155898 -120.647170 133 5120ft 117kts
23-May-15 17:32 35.132336 -120.616182 138 5038ft 124kts
23-May-15 17:33 35.107191 -120.585347 137 4960ft 127kts
23-May-15 17:34 35.081607 -120.555420 137 4968ft 127kts
23-May-15 17:35 35.056106 -120.525056 137 5018ft 123kts
23-May-15 17:36 35.031671 -120.493938 134 5073ft 122kts
23-May-15 17:37 35.007086 -120.461951 136 4977ft 135kts
23-May-15 17:38 34.981260 -120.431023 134 5017ft 133kts
23-May-15 17:39 34.955730 -120.399089 134 5011ft 133kts
23-May-15 17:40 34.929363 -120.367378 136 4993ft 132kts
23-May-15 17:41 34.902890 -120.336058 134 4975ft 132kts
23-May-15 17:42 34.876482 -120.305718 133 5035ft 130kts
23-May-15 17:43 34.849836 -120.274201 134 4527ft 136kts
23-May-15 17:44 34.824249 -120.242791 141 3493ft 126kts
23-May-15 17:45 34.798837 -120.211828 137 2953ft 120kts
23-May-15 17:46 34.774509 -120.182324 136 3013ft 120kts
23-May-15 17:47 34.754658 -120.190430 253 3000ft 87kts
23-May-15 17:48 34.744974 -120.220818 254 2941ft 92kts
23-May-15 17:49 34.736260 -120.249070 280 3035ft 80kts
23-May-15 17:50 34.749769 -120.272436 305 3001ft 85kts
23-May-15 17:51 34.763575 -120.296718 301 2951ft 89kts
23-May-15 17:52 34.774371 -120.322735 285 2928ft 84kts
23-May-15 17:53 34.777109 -120.351260 295 2994ft 83kts
23-May-15 17:54 34.790024 -120.368223 328 2785ft 67kts
23-May-15 17:55 34.802940 -120.384388 332 2140ft 62kts
23-May-15 17:56 34.820201 -120.395617 339 2370ft 56kts
23-May-15 17:57 34.835646 -120.407318 331 1895ft 74kts
23-May-15 17:58 34.851570 -120.416807 326 1800ft 52kts
23-May-15 17:59 34.863129 -120.424966 331 1558ft 51kts
23-May-15 18:00 34.877283 -120.429750 339 1193ft 55kts
23-May-15 18:01 34.888947 -120.441470 316 677ft 49kts
23-May-15 18:02 34.898072 -120.452163 315 238ft 22kts
23-May-15 18:03 34.898907 -120.451482 94 240ft 0kts
23-May-15 18:04 34.898904 -120.450957 85 241ft 17kts

Navigation Log

Ident Type
Flight plan parsing failed, navigation log unavailable